CheckWX is a tool to help pilots better visualize weather data.  It is not intended as a substitute for an official pre-flight weather briefing.

01:11:32 UTC

KSDM METAR
Brown Field Municipal Airport
San Diego, California, USA
Current

19 mins ago

KSDM 200053Z 29007KT 10SM CLR 19/14 A2991 RMK AO2 SLP124 T01890139
Observed
Jul-20 @ 00:53 UTC
Wind
  • 290° at 7 KTS
Visibility
10 SM
Flight Rules
VFR
Cloud Levels
  • Clear skies
Temperature
19°C / 66°F
Dewpoint
14°C / 57°F
Humidity
73%
Altimeter
29.91" Hg
Pressure
1012.92 hPa
Previous

1 hour ago

KSDM 192353Z 30007KT 10SM CLR 20/14 A2991 RMK AO2 SLP123 T02000139 10228 20200 58011
Observed
Jul-19 @ 23:53 UTC
Wind
  • 300° at 7 KTS
Visibility
10 SM
Flight Rules
VFR
Cloud Levels
  • Clear skies
Temperature
20°C / 68°F
Dewpoint
14°C / 57°F
Humidity
69%
Altimeter
29.91" Hg
Pressure
1012.92 hPa
Previous

2 hours ago

KSDM 192253Z 28008KT 260V320 10SM CLR 21/14 A2992 RMK AO2 SLP126 T02110139
Observed
Jul-19 @ 22:53 UTC
Wind
  • 280° at 8 KTS
Visibility
10 SM
Flight Rules
VFR
Cloud Levels
  • Clear skies
Temperature
21°C / 70°F
Dewpoint
14°C / 57°F
Humidity
64%
Altimeter
29.92" Hg
Pressure
1013.22 hPa